Liberal, KS

10:19 AM CST on January 16, 2017 (GMT -0600)
Liberal Municipal

Weather History for KLBL - March, 2013

Change the Weather History Date:

Friday, March 8, 2013

  Actual Average Record
Temperature  
Mean Temperature 58 °F -  
Max Temperature 69 °F 59 °F 78 °F (1992)
Min Temperature 48 °F 28 °F 5 °F (1967)
Degree Days  
Heating Degree Days 6    
Growing Degree Days 8 (Base 50)    
Moisture  
Dew Point 41 °F    
Average Humidity 58    
Maximum Humidity 82    
Minimum Humidity 40    
Precipitation  
Precipitation 0.05 in - - ()
Sea Level Pressure  
Sea Level Pressure 29.85 in    
Wind  
Wind Speed 16 mph (South)    
Max Wind Speed 29 mph    
Max Gust Speed 37 mph    
Visibility 10 miles    
Events Thunderstorm    
Averages and records for this station are not official NWS values.
T = Trace of Precipitation, MM = Missing Value Source: NWS Daily Summary

Daily Weather History Graph

Daily Weather History Graph

Search for Another Location

Airport or City:

Trip Planner

Search our weather history database for the weather conditions in past years. The results will help you decide how hot, cold, wet, or windy it might be!

Date:

Astronomy

Mar. 08, 2013 Rise Set
Actual Time 7:04 AM CST 6:44 PM CST
Civil Twilight 6:38 AM CST 7:10 PM CST
Nautical Twilight 6:08 AM CST 7:41 PM CST
Astronomical Twilight 5:38 AM CST 8:11 PM CST
Moon 4:46 AM CST (3/8) 3:45 PM CST (3/8)
Length of Visible Light 12h 32m
Length of Day
11h 40m
Waning Crescent, 11% of the Moon is Illuminated
Mar 8
Waning Crescent
Mar 11
New
Mar 19
First Quarter
Mar 27
Full
Apr 2
Last Quarter

Hourly Weather History & Observations

Time (CST) Temp. Dew Point Humidity Pressure Visibility Wind Dir Wind Speed Gust Speed Precip Events Conditions
12:15 AM 51.8 °F 28.4 °F 41% 29.95 in 10.0 mi SSW 13.8 mph - N/A   Clear
12:35 AM 51.8 °F 30.2 °F 44% 29.95 in 10.0 mi South 13.8 mph - N/A   Clear
12:55 AM 51.8 °F 30.2 °F 44% 29.94 in 10.0 mi South 15.0 mph - N/A   Clear
1:15 AM 50.0 °F 30.2 °F 47% 29.93 in 10.0 mi South 12.7 mph - N/A   Clear
1:35 AM 48.2 °F 30.2 °F 50% 29.93 in 10.0 mi South 11.5 mph - N/A   Clear
1:55 AM 48.2 °F 30.2 °F 50% 29.93 in 10.0 mi South 13.8 mph - N/A   Clear
2:15 AM 50.0 °F 33.8 °F 54% 29.94 in 10.0 mi South 16.1 mph - N/A   Clear
2:35 AM 48.2 °F 33.8 °F 58% 29.93 in 10.0 mi South 16.1 mph - N/A   Clear
2:55 AM 50.0 °F 33.8 °F 54% 29.92 in 10.0 mi South 16.1 mph - N/A   Clear
3:15 AM 50.0 °F 33.8 °F 54% 29.92 in 10.0 mi South 15.0 mph - N/A   Clear
3:35 AM 48.2 °F 33.8 °F 58% 29.91 in 10.0 mi South 13.8 mph - N/A   Clear
3:55 AM 48.2 °F 33.8 °F 58% 29.90 in 10.0 mi South 13.8 mph - N/A   Clear
4:15 AM 48.2 °F 33.8 °F 58% 29.89 in 10.0 mi South 13.8 mph - N/A   Clear
4:35 AM 50.0 °F 33.8 °F 54% 29.88 in 10.0 mi South 16.1 mph - N/A   Clear
4:55 AM 48.2 °F 33.8 °F 58% 29.88 in 10.0 mi South 13.8 mph - N/A   Partly Cloudy
5:15 AM 50.0 °F 33.8 °F 54% 29.88 in 10.0 mi South 15.0 mph - N/A   Clear
5:35 AM 50.0 °F 33.8 °F 54% 29.90 in 10.0 mi South 12.7 mph - N/A   Clear
6:15 AM 50.0 °F 35.6 °F 58% 29.90 in 10.0 mi South 10.4 mph - N/A   Clear
6:35 AM 48.2 °F 35.6 °F 62% 29.89 in 10.0 mi South 6.9 mph - N/A   Clear
6:55 AM 48.2 °F 33.8 °F 58% 29.89 in 10.0 mi South 6.9 mph - N/A   Clear
7:15 AM 48.2 °F 35.6 °F 62% 29.90 in 10.0 mi South 9.2 mph - N/A   Clear
7:35 AM 48.2 °F 35.6 °F 62% 29.90 in 10.0 mi South 10.4 mph - N/A   Scattered Clouds
7:55 AM 48.2 °F 35.6 °F 62% 29.91 in 10.0 mi South 10.4 mph - N/A   Mostly Cloudy
8:15 AM 48.2 °F 37.4 °F 66% 29.92 in 10.0 mi South 10.4 mph - N/A   Mostly Cloudy
8:35 AM 51.8 °F 37.4 °F 58% 29.92 in 10.0 mi South 11.5 mph - N/A   Mostly Cloudy
8:55 AM 51.8 °F 39.2 °F 62% 29.92 in 10.0 mi South 12.7 mph - N/A   Mostly Cloudy
9:15 AM 53.6 °F 39.2 °F 58% 29.92 in 10.0 mi South 11.5 mph - N/A   Scattered Clouds
9:35 AM 53.6 °F 39.2 °F 58% 29.92 in 10.0 mi South 10.4 mph - N/A   Scattered Clouds
9:55 AM 55.4 °F 39.2 °F 54% 29.93 in 10.0 mi SSW 17.3 mph - N/A   Scattered Clouds
10:15 AM 57.2 °F 41.0 °F 55% 29.90 in 10.0 mi South 17.3 mph - N/A   Partly Cloudy
10:35 AM 59.0 °F 41.0 °F 51% 29.89 in 10.0 mi SSE 16.1 mph - N/A   Clear
10:55 AM 60.8 °F 41.0 °F 48% 29.91 in 10.0 mi SSW 17.3 mph 24.2 mph N/A   Partly Cloudy
11:15 AM 62.6 °F 42.8 °F 48% 29.91 in 10.0 mi SSW 16.1 mph - N/A   Clear
11:35 AM 66.2 °F 42.8 °F 43% 29.90 in 10.0 mi South 18.4 mph 23.0 mph N/A   Clear
11:55 AM 66.2 °F 41.0 °F 40% 29.89 in 10.0 mi SSW 20.7 mph 27.6 mph N/A   Clear
12:15 PM 66.2 °F 41.0 °F 40% 29.88 in 10.0 mi South 19.6 mph - N/A   Mostly Cloudy
12:35 PM 64.4 °F 39.2 °F 40% 29.87 in 10.0 mi South 21.9 mph - N/A   Overcast
12:55 PM 62.6 °F 39.2 °F 42% 29.87 in 10.0 mi South 19.6 mph - N/A   Mostly Cloudy
1:15 PM 64.4 °F 42.8 °F 45% 29.85 in 10.0 mi South 16.1 mph 21.9 mph N/A   Overcast
1:35 PM 68.0 °F 44.6 °F 43% 29.83 in 10.0 mi South 25.3 mph 28.8 mph N/A   Overcast
1:55 PM 66.2 °F 42.8 °F 43% 29.81 in 10.0 mi South 19.6 mph - N/A   Overcast
2:15 PM 66.2 °F 42.8 °F 43% 29.80 in 10.0 mi SSE 21.9 mph - N/A   Overcast
2:35 PM 66.2 °F 42.8 °F 43% 29.80 in 10.0 mi South 26.5 mph 29.9 mph N/A   Overcast
2:55 PM 68.0 °F 44.6 °F 43% 29.79 in 10.0 mi South 28.8 mph 34.5 mph N/A   Overcast
3:15 PM 68.0 °F 44.6 °F 43% 29.78 in 10.0 mi South 26.5 mph 32.2 mph N/A   Overcast
3:35 PM 69.8 °F 44.6 °F 40% 29.77 in 10.0 mi SSE 26.5 mph 34.5 mph N/A   Partly Cloudy
3:55 PM 69.8 °F 44.6 °F 40% 29.77 in 10.0 mi South 27.6 mph 35.7 mph N/A   Clear
4:15 PM 69.8 °F 46.4 °F 43% 29.76 in 10.0 mi South 26.5 mph 32.2 mph N/A   Clear
4:35 PM 68.0 °F 46.4 °F 46% 29.76 in 10.0 mi South 27.6 mph 36.8 mph N/A   Clear
4:55 PM 66.2 °F 46.4 °F 49% 29.75 in 10.0 mi SSE 28.8 mph 35.7 mph N/A   Clear
5:15 PM 64.4 °F 46.4 °F 52% 29.75 in 10.0 mi SSE 26.5 mph 33.4 mph N/A   Clear
5:35 PM 64.4 °F 46.4 °F 52% 29.75 in 10.0 mi SSE 24.2 mph 32.2 mph N/A   Clear
5:55 PM 62.6 °F 48.2 °F 59% 29.75 in 10.0 mi SSE 24.2 mph 29.9 mph N/A   Clear
6:15 PM 60.8 °F 46.4 °F 59% 29.76 in 10.0 mi SSE 20.7 mph 32.2 mph N/A   Clear
6:35 PM 57.2 °F 46.4 °F 67% 29.76 in 10.0 mi SSE 21.9 mph 27.6 mph N/A   Clear
6:55 PM 55.4 °F 46.4 °F 72% 29.76 in 10.0 mi South 24.2 mph 31.1 mph N/A   Scattered Clouds
7:15 PM 55.4 °F 46.4 °F 72% 29.76 in 10.0 mi South 21.9 mph 28.8 mph N/A   Mostly Cloudy
7:35 PM 55.4 °F 48.2 °F 77% 29.76 in 10.0 mi South 18.4 mph 31.1 mph N/A   Overcast
7:55 PM 55.4 °F 48.2 °F 77% 29.76 in 10.0 mi South 26.5 mph 32.2 mph N/A   Overcast
8:15 PM 55.4 °F 48.2 °F 77% 29.75 in 10.0 mi South 24.2 mph 34.5 mph N/A   Overcast
8:35 PM 55.4 °F 48.2 °F 77% 29.77 in 10.0 mi South 23.0 mph 29.9 mph N/A   Overcast
8:55 PM 55.4 °F 48.2 °F 77% 29.79 in 10.0 mi South 24.2 mph 29.9 mph N/A   Overcast
9:15 PM 55.4 °F 48.2 °F 77% 29.77 in 10.0 mi South 21.9 mph 29.9 mph N/A   Overcast
9:35 PM 55.4 °F 50.0 °F 82% 29.79 in 10.0 mi South 21.9 mph 33.4 mph N/A   Overcast
9:55 PM 55.4 °F 50.0 °F 82% 29.80 in 10.0 mi SSW 13.8 mph - N/A   Overcast
10:15 PM 55.4 °F 50.0 °F 82% 29.80 in 10.0 mi SSW 13.8 mph - N/A Thunderstorm Thunderstorm
10:35 PM 55.4 °F 50.0 °F 82% 29.80 in 10.0 mi South 12.7 mph - N/A   Scattered Clouds
10:55 PM 55.4 °F 48.2 °F 77% 29.79 in 10.0 mi South 11.5 mph - N/A   Mostly Cloudy
11:15 PM 55.4 °F 50.0 °F 82% 29.78 in 10.0 mi South 15.0 mph - N/A   Overcast
11:35 PM 55.4 °F 50.0 °F 82% 29.77 in 10.0 mi South 15.0 mph - N/A   Overcast
11:55 PM 55.4 °F 50.0 °F 82% 29.75 in 10.0 mi SSE 15.0 mph - N/A   Overcast